Latest Coastal Weather Observations for Yarram Airport

IDV60701

Issued at 7:45 pm EST Thursday 18 September 2014 (issued every 10 minutes, with the page automatically refreshed every 10 minutes)

About coastal observations | Map of coastal stations | Coastal observations for VIC | Marine services | Other Formats
Station Details ID: 085151 Name: YARRAM AIRPORT Lat: -38.56 Lon: 146.75 Height: 17.9 m
Data from the previous 72 hours. | See also: Recent months at Yarram Airport
Date/Time
EST
Temp

°C
Wind Pressure Rain
since 9am
mm
Weather Cloud Vis
km
Sea
Height
m
Swell
Dir
 
Speed
knots
Gust
knots
hPa Trend Height
m
Period
s
Dir
18/07:30pm 7.6 WNW 7 8 1022.6 - 0.2 - - - - - - -
18/07:00pm 8.4 WNW 6 8 1022.4 - 0.2 - - - - - - -
18/06:30pm 9.3 W 10 12 1022.0 - 0.2 - - - - - - -
18/06:00pm 9.7 W 10 13 1021.7 - 0.2 Recent precip. - - - - - -
18/05:30pm 10.4 WSW 14 23 1021.4 - 0.2 - - - - - - -
18/05:00pm 11.5 WSW 17 22 1021.1 - 0.0 - - - - - - -
18/04:37pm 11.7 SW 19 29 1020.8 - 0.0 - - - - - - -
18/04:30pm 12.0 WSW 18 23 1020.7 - 0.0 - - - - - - -
18/04:00pm 12.4 WSW 19 27 1020.5 - 0.0 - - - - - - -
18/03:30pm 13.0 WSW 19 24 1020.3 - 0.0 - - - - - - -
18/03:00pm 13.4 WSW 18 25 1020.3 - 0.0 - - - - - - -
18/02:30pm 13.7 WSW 17 23 1020.3 - 0.0 - - - - - - -
18/02:00pm 13.5 WSW 19 24 1020.3 - 0.0 - - - - - - -
18/01:31pm 12.5 WSW 16 26 1020.1 - 0.0 - - - - - - -
18/01:30pm 12.7 W 15 22 1020.2 - 0.0 - - - - - - -
18/01:00pm 13.2 SW 17 24 1020.4 - 0.0 - - - - - - -
18/12:30pm 13.4 SW 17 23 1020.4 - 0.0 - - - - - - -
18/12:00pm 13.3 WSW 19 24 1020.4 - 0.0 - - - - - - -
18/11:30am 12.3 WSW 18 23 1020.3 - 0.0 - - - - - - -
18/11:00am 13.0 WSW 17 24 1020.4 - 0.0 - - - - - - -
18/10:30am 12.4 WSW 18 24 1020.4 - 0.0 - - - - - - -
18/10:00am 12.4 W 15 20 1020.4 - 0.0 - - - - - - -
18/09:30am 11.4 WSW 13 18 1020.2 - 0.0 - - - - - - -
18/09:00am 11.3 W 10 13 1020.0 - 4.8 - - - - - - -
18/08:30am 10.0 W 10 13 1019.9 - 4.8 - - - - - - -
18/08:00am 8.9 W 8 11 1019.8 - 4.8 - - - - - - -
18/07:30am 9.3 WNW 11 14 1019.5 - 4.6 - - - - - - -
18/07:00am 8.4 WNW 9 12 1019.2 - 4.6 - - - - - - -
18/06:30am 8.2 W 10 15 1018.8 - 4.6 - - - - - - -
18/06:00am 7.7 W 8 12 1018.2 - 4.6 Recent precip. - - - - - -
18/05:30am 7.4 WSW 7 8 1017.9 - 4.4 - - - - - - -
18/05:00am 7.3 W 7 9 1017.5 - 4.2 - - - - - - -
18/04:30am 7.6 W 11 16 1017.0 - 4.2 - - - - - - -
18/04:01am 7.9 W 15 27 1016.6 - 4.2 - - - - - - -
18/04:00am 7.7 W 15 20 1016.6 - 4.2 - - - - - - -
18/03:30am 7.1 W 13 16 1016.3 - 4.2 - - - - - - -
18/03:00am 7.6 W 12 17 1016.2 - 4.2 Recent precip. - - - - - -
18/02:30am 7.9 WSW 11 15 1016.1 - 4.0 - - - - - - -
18/02:00am 7.5 WSW 18 23 1016.0 - 4.0 - - - - - - -
18/01:30am 7.5 WSW 17 21 1016.4 - 3.4 - - - - - - -
18/01:00am 7.1 W 11 16 1016.1 - 2.8 - - - - - - -
18/12:30am 7.5 WNW 14 19 1016.2 - 2.8 - - - - - - -
18/12:00am 7.6 WNW 12 16 1016.0 - 2.8 - - - - - - -
 
Date/Time
EST
Temp

°C
Wind Pressure Rain
since 9am
mm
Weather Cloud Vis
km
Sea
Height
m
Swell
Dir
 
Speed
knots
Gust
knots
hPa Trend Height
m
Period
s
Dir
17/11:30pm 6.9 W 7 9 1016.2 - 2.8 - - - - - - -
17/11:00pm 7.4 W 11 20 1016.2 - 2.8 - - - - - - -
17/10:30pm 7.2 W 8 11 1016.1 - 2.8 - - - - - - -
17/10:00pm 6.9 W 11 14 1015.9 - 2.8 - - - - - - -
17/09:30pm 6.6 W 11 14 1015.7 - 2.8 - - - - - - -
17/09:00pm 7.4 W 13 19 1015.5 - 2.8 - - - - - - -
17/08:30pm 8.3 W 16 23 1015.4 - 2.8 - - - - - - -
17/08:00pm 7.6 W 13 16 1015.2 - 2.8 - - - - - - -
17/07:30pm 7.5 W 14 18 1014.9 - 2.8 - - - - - - -
17/07:00pm 8.1 W 16 21 1014.6 - 2.8 - - - - - - -
17/06:37pm 8.0 W 19 29 1014.3 - 2.8 - - - - - - -
17/06:30pm 8.3 W 21 29 1014.1 - 2.8 - - - - - - -
17/06:16pm 8.6 W 15 28 1014.0 - 2.6 - - - - - - -
17/06:00pm 8.1 W 14 17 1013.9 - 2.6 - - - - - - -
17/05:32pm 8.8 W 25 35 1013.2 - 2.6 - - - - - - -
17/05:30pm 9.0 W 27 35 1013.3 - 2.6 - - - - - - -
17/05:26pm 9.7 WSW 15 26 1013.3 - 2.6 - - - - - - -
17/05:00pm 10.5 WSW 19 26 1012.6 - 2.6 - - - - - - -
17/04:30pm 11.1 WSW 22 32 1011.9 - 2.6 - - - - - - -
17/04:00pm 11.1 W 22 33 1011.6 - 2.6 - - - - - - -
17/03:56pm 10.6 W 22 33 1011.5 - 2.6 - - - - - - -
17/03:44pm 9.5 WSW 23 29 1011.5 - 2.6 - - - - - - -
17/03:37pm 10.1 W 35 47 1011.0 - 2.6 - - - - - - -
17/03:30pm 10.2 WSW 22 32 1011.1 - 2.6 - - - - - - -
17/03:24pm 9.7 WSW 20 32 1011.0 - 2.6 - - - - - - -
17/03:00pm 10.0 W 21 27 1010.9 - 2.6 Recent precip. - - - - - -
17/02:30pm 10.5 W 27 37 1010.3 - 2.2 - - - - - - -
17/02:00pm 12.2 WSW 28 41 1009.8 - 2.2 - - - - - - -
17/01:38pm 12.9 W 24 34 1009.6 - 2.2 - - - - - - -
17/01:30pm 11.9 W 25 34 1009.6 - 2.2 - - - - - - -
17/01:00pm 12.7 W 22 31 1009.6 - 2.2 - - - - - - -
17/12:30pm 10.5 W 23 32 1010.0 - 2.2 - - - - - - -
17/12:21pm 10.8 W 19 32 1010.0 - 2.0 - - - - - - -
17/12:00pm 10.5 W 19 28 1010.1 - 2.0 Rain - - - - - -
17/11:30am 10.9 W 15 20 1010.3 - 1.6 - - - - - - -
17/11:00am 10.5 WNW 15 19 1010.4 - 1.6 - - - - - - -
17/10:30am 9.1 W 17 25 1010.7 - 1.6 - - - - - - -
17/10:11am 11.0 W 19 29 1010.7 - 0.2 - - - - - - -
17/10:00am 11.5 W 18 22 1010.5 - 0.2 - - - - - - -
17/09:30am 12.9 W 17 23 1010.4 - 0.0 - - - - - - -
17/09:00am 12.2 W 14 19 1010.4 - - - - - - - - -
17/08:30am 10.9 WNW 17 23 1010.7 - - - - - - - - -
17/08:23am 11.2 WNW 15 23 1010.8 - - - - - - - - -
17/08:00am 9.4 W 9 12 1010.8 - - - - - - - - -
17/07:30am 9.6 WSW 14 19 1011.1 - - - - - - - - -
17/07:00am 9.7 WNW 14 18 1010.7 - - - - - - - - -
17/06:30am 9.5 WNW 13 17 1010.4 - - - - - - - - -
17/06:00am 9.7 WNW 13 19 1010.5 - - - - - - - - -
17/05:30am 9.5 WNW 9 13 1010.6 - - - - - - - - -
17/05:00am 9.9 WNW 9 12 1010.5 - - - - - - - - -
17/04:30am 9.2 WNW 9 11 1010.5 - - - - - - - - -
17/04:00am 8.4 WNW 7 11 1010.3 - - - - - - - - -
17/03:30am 8.1 WNW 5 7 1010.3 - - - - - - - - -
17/03:00am 8.1 NW 7 9 1010.5 - 0.0 - - - - - - -
17/02:30am 7.9 WNW 6 7 1010.6 - - - - - - - - -
17/02:00am 9.4 W 7 8 1010.8 - - - - - - - - -
17/01:30am 9.2 WNW 5 6 1011.1 - - - - - - - - -
17/01:00am 9.0 WNW 6 7 1011.4 - - - - - - - - -
17/12:30am 8.9 W 7 9 1011.5 - - - - - - - - -
17/12:00am 9.5 W 8 11 1011.4 - - - - - - - - -
 
Date/Time
EST
Temp

°C
Wind Pressure Rain
since 9am
mm
Weather Cloud Vis
km
Sea
Height
m
Swell
Dir
 
Speed
knots
Gust
knots
hPa Trend Height
m
Period
s
Dir
16/11:30pm 9.7 W 9 11 1011.4 - - - - - - - - -
16/11:00pm 10.3 W 10 13 1011.5 - - - - - - - - -
16/10:30pm 10.9 W 11 15 1011.5 - - - - - - - - -
16/10:00pm 11.1 W 11 15 1011.4 - - - - - - - - -
16/09:30pm 11.5 WSW 15 20 1011.2 - - - - - - - - -
16/09:00pm 11.6 WSW 14 18 1010.8 - 11.0 - - - - - - -
16/08:30pm 11.9 WSW 16 22 1010.4 - - - - - - - - -
16/08:00pm 12.2 W 14 18 1009.9 - - - - - - - - -
16/07:30pm 12.6 W 14 19 1009.4 - - - - - - - - -
16/07:00pm 12.3 W 11 15 1009.1 - - - - - - - - -
16/06:30pm 11.8 W 9 11 1009.0 - - - - - - - - -
16/06:00pm 11.6 W 7 9 1008.9 - - - - - - - - -
16/05:30pm 12.2 W 8 11 1008.9 - - - - - - - - -
16/05:00pm 12.6 WSW 11 13 1008.6 - - - - - - - - -
16/04:30pm 12.0 SW 20 26 1008.4 - - - - - - - - -
16/04:26pm 12.4 SW 21 26 1008.2 - - - - - - - - -
16/04:00pm 14.0 SW 7 10 1007.5 - - - - - - - - -
16/03:30pm 14.2 SW 10 13 1007.3 - - - - - - - - -
16/03:00pm 13.9 SSW 13 17 1007.0 - - Rain - - - - - -
16/02:30pm 14.7 SSE 8 11 1006.8 - 0.0 - - - - - - -
16/02:00pm 15.3 SSE 10 12 1006.6 - 0.0 - - - - - - -
16/01:30pm 15.6 S 10 13 1007.0 - 0.0 - - - - - - -
16/01:00pm 16.1 SSE 9 11 1007.2 - 0.0 - - - - - - -
16/12:30pm 15.7 SSE 8 11 1007.5 - 0.0 - - - - - - -
16/12:00pm 15.8 SSE 8 11 1007.8 - 0.0 - - - - - - -
16/11:30am 15.5 SE 6 7 1008.1 - 0.0 - - - - - - -
16/11:00am 15.5 SE 4 6 1008.5 - 0.0 - - - - - - -
16/10:30am 15.1 E 6 8 1008.5 - 0.0 - - - - - - -
16/10:00am 14.8 ENE 7 11 1008.7 - 0.0 - - - - - - -
16/09:30am 14.6 ENE 8 12 1008.7 - 0.0 - - - - - - -
16/09:00am 14.2 E 7 10 1008.8 - 2.6 Recent precip. - - - - - -
16/08:30am 13.6 ENE 5 9 1009.1 - 2.6 - - - - - - -
16/08:00am 13.3 E 6 8 1008.9 - 2.2 - - - - - - -
16/07:30am 13.1 E 4 5 1009.2 - 2.2 - - - - - - -
16/07:00am 12.9 ENE 4 5 1009.1 - 2.2 - - - - - - -
16/06:30am 12.8 ENE 5 9 1009.0 - 2.0 - - - - - - -
16/06:00am 12.9 NE 7 11 1009.2 - 2.0 Recent precip. - - - - - -
16/05:30am 12.7 NE 6 10 1008.9 - 2.0 - - - - - - -
16/05:00am 12.5 ENE 10 15 1008.6 - 1.8 - - - - - - -
16/04:30am 12.2 NNW 3 5 1009.6 - 0.6 - - - - - - -
16/04:00am 12.0 ENE 5 9 1009.5 - 0.4 - - - - - - -
16/03:30am 12.2 NE 5 7 1009.8 - 0.2 - - - - - - -
16/03:00am 11.8 ENE 5 7 1009.8 - 0.2 - - - - - - -
16/02:30am 11.7 ENE 5 6 1010.1 - 0.2 - - - - - - -
16/02:00am 12.4 ENE 5 8 1010.6 - 0.2 - - - - - - -
16/01:30am 12.7 ENE 6 8 1010.9 - 0.2 - - - - - - -
16/01:00am 12.7 NE 8 12 1011.7 - 0.2 - - - - - - -
16/12:30am 12.5 ENE 9 14 1011.4 - 0.2 - - - - - - -
16/12:00am 12.2 E 9 13 1011.7 - 0.2 - - - - - - -
 
Date/Time
EST
Temp

°C
Wind Pressure Rain
since 9am
mm
Weather Cloud Vis
km
Sea
Height
m
Swell
Dir
 
Speed
knots
Gust
knots
hPa Trend Height
m
Period
s
Dir
15/11:30pm 12.0 NE 7 10 1012.2 - 0.2 - - - - - - -
15/11:00pm 11.8 NE 8 10 1012.7 - 0.2 - - - - - - -
15/10:30pm 11.5 E 6 8 1013.1 - 0.2 - - - - - - -
15/10:00pm 11.7 ENE 6 9 1013.5 - 0.2 - - - - - - -
15/09:30pm 11.6 NE 7 9 1013.5 - 0.2 - - - - - - -
15/09:00pm 11.6 ENE 7 11 1013.5 - 0.2 - - - - - - -
15/08:30pm 11.4 ENE 7 13 1013.8 - 0.2 - - - - - - -
15/08:00pm 11.2 ENE 10 13 1013.4 - 0.2 - - - - - - -

Other Formats:

Comma delimited format used in spreadsheet applications
http://www.bom.gov.au/fwo/IDV60701/IDV60701.95890.axf

JavaScript Object Notation format (JSON) in row-major order
http://www.bom.gov.au/fwo/IDV60701/IDV60701.95890.json